Plentywood (PWD)
Plentywood, MT
Field Elevation: 2251
Lat: 48°47.32N  Long: 104°31.39W
CTAF/Unicom Freq: 122.8000
   
     For Weather-by-Phone, call 406-765-2149
Weather Advisories
10/26/2014 02:53 Z
Altimeter 29.80" Hg
Wind 100° @ 16 KT
Gusts --
Visibility 10 SM
Temperature 11° C (52° F)
Dewpoint -1° C (30° F)
Relative Humidity 46%
Density Altitude --
Condensation Altitude 7,800 feet
  Wind and Runways
Indicated Runway = 8
History
 
 
More Info
All DigiWx sites map
NOAA Forecast
 
Airport IQ 5010
(S59) Libby
(6S5) Ravalli County
 
about DigiWx
 
FAA Disclaimer: The data displayed is for advisory purposes only and is not to be used for flight planning or operations. For official data, please call 406-765-2149 to hear the current automated AWOS voice message.
  METAR PWD 260253Z AUTO 10016KT 10SM 11/M01 A2980